Santa Rosa, CA (95405)

2:04 PM PST on December 20, 2014 (GMT -0800)
Annadel Heights | Change Station
CLOSE
Current Station
Personal Weather Station
Location: Santa Rosa, CA
Elevation: 340 ft
Nearby Weather Stations
Active Advisory: Coastal Flood Advisory

Elev 340 ft 38.43 °N, 122.66 °W | Updated 24 seconds ago

Overcast
Overcast
56.3 °F
Feels Like 56.3 °F
N
0.0
Wind Variable Wind from East
Gusts 0.9 mph

Today
High -- | Low -- °F
--% Chance of Precip.
Yesterday
High -- | Low -- °F
Precip. -- in
7:23 AM 4:52 PM
Waning Crescent, 2% visible
Pressure 30.14 in
Visibility 4.0 miles
Clouds Mostly Cloudy 800 ft
Overcast 2900 ft
Dew Point 56 °F
Humidity 98%
Rainfall 0.00 in
Snow Depth Not available.
UV 1 out of 12
Pollen 4.00 out of 12
Air Quality Not available.
Flu Activity Not available.
METAR KSTS 202153Z 16004KT 4SM BR BKN008 OVC029 13/12 A3016 RMK AO2 RAE17 SLP206 P0000 T01330122

More Conditions Fewer Conditions

Pressure 30.14 in
Visibility 4.0 miles
Clouds Mostly Cloudy 800 ft
Overcast 2900 ft
Dew Point 56 °F
Humidity 98%
Rainfall 0.00 in
Snow Depth Not available.
UV 1 out of 12
Pollen 4.00 out of 12
Air Quality Not available.
Flu Activity Not available.
METAR KSTS 202153Z 16004KT 4SM BR BKN008 OVC029 13/12 A3016 RMK AO2 RAE17 SLP206 P0000 T01330122

More Conditions Fewer Conditions

10-Day Weather Forecast

Almanac

Astronomy

Dec. 20, 2014 Rise Set
Actual Time
Civil Twilight
Nautical Twilight
Astronomical Twilight
Moon
Length of Visible Light
Length of Day
Tomorrow will be .
, % of the Moon is Illuminated

Today's Extremes

State Highs State Lows

Community

WunderPhotos

Upload Photos

1,779,288 photos uploaded!

WunderBlogs® & News

Nearby

Air Quality

  Air Quality AQ Index Pollutant
Not available.

Snow Depth

Station Depth Elevation

Earthquake Activity

City Distance Mag. Time & Date
Minimum magnitude displayed is 2.5.

Coastal Water Temperatures

Place Temperature

Nearby Weather Stations